Time;durP1;ratioP1;P1;durP2;ratioP2;P2;SDS_P1;SDS_P2;PMS_P1;PMS_P2;Temp;Humidity;BMP_temperature;BMP_pressure;BME280_temperature;BME280_humidity;BME280_pressure;Samples;Min_cycle;Max_cycle;Signal;HPM_P1;HPM_P2
2021/07/05 07:08:47;;;;;;;13.90;8.73;;;;;;;24.29;52.15;98706.16;5159301;27;20153;-57
2021/07/05 07:11:14;;;;;;;12.77;8.57;;;;;;;24.34;52.10;98704.03;5171831;27;20373;-59
2021/07/05 07:13:41;;;;;;;12.82;8.13;;;;;;;24.43;52.30;98707.84;5172040;27;20046;-59
2021/07/05 07:16:08;;;;;;;15.35;9.43;;;;;;;24.54;51.60;98710.63;5171933;27;20455;-58
2021/07/05 07:18:58;;;;;;;19.40;9.35;;;;;;;24.68;51.30;98705.16;5172256;27;20415;-59
2021/07/05 07:21:25;;;;;;;12.90;8.65;;;;;;;24.85;51.20;98711.88;5171432;27;20129;-60
2021/07/05 07:23:53;;;;;;;12.63;8.88;;;;;;;24.96;50.95;98709.28;5171138;27;20416;-60
2021/07/05 07:26:20;;;;;;;15.88;8.80;;;;;;;25.10;50.31;98704.75;5172305;27;20050;-60
2021/07/05 07:28:51;;;;;;;19.80;9.00;;;;;;;25.24;50.14;98701.09;5171906;27;20042;-60
2021/07/05 07:31:18;;;;;;;15.40;7.70;;;;;;;25.40;50.40;98698.13;5171976;27;20039;-60
2021/07/05 07:33:44;;;;;;;16.70;8.90;;;;;;;25.49;49.47;98700.09;5172016;27;20098;-60
2021/07/05 07:36:11;;;;;;;12.05;8.60;;;;;;;25.61;49.42;98699.16;5171745;27;20533;-60
2021/07/05 07:38:41;;;;;;;12.77;7.95;;;;;;;25.74;49.18;98694.59;5171682;27;20046;-60
2021/07/05 07:41:09;;;;;;;13.70;8.35;;;;;;;25.85;49.15;98692.91;5172228;27;20069;-61
2021/07/05 07:43:36;;;;;;;14.52;7.85;;;;;;;25.99;49.23;98691.84;5171533;27;20516;-60
2021/07/05 07:46:02;;;;;;;15.07;8.85;;;;;;;26.07;49.00;98690.25;5171785;27;20095;-60
2021/07/05 07:48:29;;;;;;;10.20;7.65;;;;;;;26.19;48.92;98690.25;5171563;27;20485;-60
2021/07/05 07:50:56;;;;;;;12.05;7.65;;;;;;;26.30;48.20;98684.91;5171752;27;20043;-60
2021/07/05 07:53:23;;;;;;;11.52;7.80;;;;;;;26.43;48.81;98685.63;5171450;27;20557;-60
2021/07/05 07:55:49;;;;;;;9.82;7.72;;;;;;;26.56;48.17;98692.66;5171656;27;20087;-60
2021/07/05 07:58:17;;;;;;;17.27;8.15;;;;;;;26.66;46.98;98686.47;5171352;27;20051;-61
2021/07/05 08:00:44;;;;;;;11.23;8.38;;;;;;;26.73;47.26;98691.31;5171263;27;20046;-61
2021/07/05 08:03:12;;;;;;;10.75;7.50;;;;;;;26.85;46.86;98696.53;5171086;27;20050;-60
2021/07/05 08:05:39;;;;;;;10.52;7.50;;;;;;;26.97;46.78;98693.78;5171294;27;20038;-61
2021/07/05 08:08:08;;;;;;;11.30;7.22;;;;;;;27.09;47.34;98688.28;5170847;27;20106;-61
2021/07/05 08:10:34;;;;;;;12.48;7.70;;;;;;;27.19;46.70;98677.66;5170966;27;20091;-61
2021/07/05 08:13:02;;;;;;;12.00;8.07;;;;;;;27.27;45.23;98675.22;5171177;27;20174;-61
2021/07/05 08:15:31;;;;;;;10.45;7.07;;;;;;;27.42;45.70;98673.09;5171104;27;20046;-61
2021/07/05 08:17:57;;;;;;;11.27;7.20;;;;;;;27.55;45.21;98680.06;5169242;27;20046;-61
2021/07/05 08:20:24;;;;;;;10.93;7.18;;;;;;;27.67;45.56;98671.84;5156629;27;20096;-61
2021/07/05 08:22:51;;;;;;;10.13;6.90;;;;;;;27.78;44.45;98670.06;5157242;27;20043;-61
2021/07/05 08:25:18;;;;;;;9.63;7.18;;;;;;;27.89;44.12;98675.38;5157096;27;20074;-61
2021/07/05 08:27:45;;;;;;;11.65;7.40;;;;;;;27.99;44.43;98676.25;5156686;27;20046;-60
2021/07/05 08:30:12;;;;;;;10.77;7.32;;;;;;;28.11;43.81;98669.00;5157050;27;20042;-61
2021/07/05 08:32:40;;;;;;;9.93;7.13;;;;;;;28.23;43.59;98669.75;5156896;27;20042;-60
2021/07/05 08:35:08;;;;;;;9.70;6.95;;;;;;;28.32;42.66;98673.44;5156977;27;20042;-61
2021/07/05 08:37:35;;;;;;;11.73;7.40;;;;;;;28.39;42.25;98664.72;5156592;27;20043;-61
2021/07/05 08:40:02;;;;;;;11.52;6.78;;;;;;;28.48;42.38;98668.44;5156907;27;20104;-61
2021/07/05 08:42:29;;;;;;;9.18;6.88;;;;;;;28.58;42.51;98660.44;5156574;27;20043;-61
2021/07/05 08:44:56;;;;;;;11.85;7.22;;;;;;;28.70;42.56;98656.66;5156903;27;20049;-61
2021/07/05 08:47:22;;;;;;;10.30;6.45;;;;;;;28.76;41.93;98656.09;5156579;27;20046;-60
2021/07/05 08:49:50;;;;;;;9.63;6.63;;;;;;;28.86;42.18;98656.09;5156754;27;20043;-60
2021/07/05 08:52:17;;;;;;;10.57;7.40;;;;;;;28.89;41.81;98658.50;5156737;27;20039;-60
2021/07/05 08:54:44;;;;;;;9.65;6.32;;;;;;;28.96;41.79;98643.53;5156727;27;20133;-61
2021/07/05 08:57:27;;;;;;;10.77;6.82;;;;;;;28.99;40.19;98642.41;5156251;27;20047;-60
2021/07/05 08:59:54;;;;;;;10.77;6.90;;;;;;;29.12;41.47;98651.06;5155557;27;20130;-61
2021/07/05 09:02:21;;;;;;;16.27;7.30;;;;;;;29.15;41.62;98642.72;5156389;27;20086;-60
2021/07/05 09:04:47;;;;;;;8.60;6.30;;;;;;;29.21;40.92;98647.50;5156052;27;20092;-61
2021/07/05 09:07:15;;;;;;;9.80;6.25;;;;;;;29.25;40.32;98643.56;5155921;27;20051;-61
2021/07/05 09:09:58;;;;;;;10.43;6.38;;;;;;;29.29;38.92;98644.09;5156307;27;20039;-61
2021/07/05 09:12:24;;;;;;;9.15;6.60;;;;;;;29.29;39.42;98638.75;5155829;27;20042;-61
2021/07/05 09:15:06;;;;;;;8.93;6.40;;;;;;;29.38;39.22;98632.53;5155965;27;20556;-61
2021/07/05 09:17:33;;;;;;;11.07;6.85;;;;;;;29.39;39.76;98638.72;5156082;27;20050;-60
2021/07/05 09:20:01;;;;;;;9.20;6.47;;;;;;;29.48;39.96;98637.03;5155867;27;20523;-60
2021/07/05 09:22:29;;;;;;;9.07;6.15;;;;;;;29.53;39.97;98629.41;5156099;27;20091;-61
2021/07/05 09:24:57;;;;;;;9.43;6.25;;;;;;;29.54;38.81;98634.59;5155998;27;20100;-61
2021/07/05 09:27:32;;;;;;;9.25;6.53;;;;;;;29.58;39.61;98632.47;5155863;27;20042;-61
2021/07/05 09:30:04;;;;;;;9.27;6.28;;;;;;;29.63;39.67;98635.59;5154824;27;20038;-61
2021/07/05 09:32:31;;;;;;;8.30;6.22;;;;;;;29.63;39.48;98631.06;5155785;27;20039;-61
2021/07/05 09:34:58;;;;;;;8.23;6.25;;;;;;;29.68;39.12;98633.28;5155751;27;20042;-61
2021/07/05 09:37:26;;;;;;;9.20;6.53;;;;;;;29.64;37.82;98630.06;5155635;27;20050;-61
2021/07/05 09:40:11;;;;;;;8.60;5.90;;;;;;;29.70;37.81;98636.72;5155625;27;20047;-61
2021/07/05 09:42:39;;;;;;;9.10;6.43;;;;;;;29.66;37.66;98632.59;5155555;27;20129;-61
2021/07/05 09:45:08;;;;;;;9.48;6.78;;;;;;;29.68;37.20;98629.78;5155530;27;20043;-61
2021/07/05 09:47:34;;;;;;;9.27;6.10;;;;;;;29.72;38.50;98628.47;5155504;27;20047;-61
2021/07/05 09:50:08;;;;;;;9.98;6.88;;;;;;;29.77;37.91;98629.78;5155074;27;20545;-61
2021/07/05 09:52:35;;;;;;;;;;;;;;;29.80;36.61;98626.81;5155632;27;20454;-61
2021/07/05 09:55:07;;;;;;;8.93;6.38;;;;;;;29.84;38.17;98630.88;5155014;27;19923;-61
2021/07/05 09:57:43;;;;;;;10.55;6.80;;;;;;;29.80;35.47;98625.97;5155369;27;20054;-61
2021/07/05 10:00:18;;;;;;;9.10;6.35;;;;;;;29.86;37.31;98628.06;5155102;27;20043;-61
2021/07/05 10:03:03;;;;;;;9.13;6.60;;;;;;;29.70;36.97;98619.72;5155282;27;20049;-62
2021/07/05 10:05:32;;;;;;;8.70;5.97;;;;;;;29.59;37.96;98621.59;5155229;27;20100;-61
2021/07/05 10:07:59;;;;;;;8.60;6.00;;;;;;;29.45;38.50;98622.91;5154676;27;20051;-61
2021/07/05 10:10:26;;;;;;;9.48;6.10;;;;;;;29.32;38.46;98625.06;5155189;27;20121;-62
2021/07/05 10:12:54;;;;;;;8.77;6.25;;;;;;;29.18;38.73;98628.19;5155060;27;20092;-61
2021/07/05 10:15:22;;;;;;;9.20;6.60;;;;;;;29.08;38.55;98625.50;5155165;27;20392;-61
2021/07/05 10:17:50;;;;;;;8.30;6.15;;;;;;;28.97;38.95;98633.66;5154756;27;20038;-61
2021/07/05 10:20:17;;;;;;;8.95;6.25;;;;;;;28.84;39.25;98628.56;5154706;27;20530;-61
2021/07/05 10:22:45;;;;;;;10.35;7.05;;;;;;;28.75;39.04;98630.28;5154849;27;20596;-61
2021/07/05 10:25:12;;;;;;;9.13;6.13;;;;;;;28.64;39.25;98633.09;5154518;27;20484;-61
2021/07/05 10:27:38;;;;;;;8.93;6.40;;;;;;;28.59;39.63;98640.69;5154359;27;20449;-61
2021/07/05 10:30:08;;;;;;;9.02;6.80;;;;;;;28.46;39.34;98641.75;5154707;27;20046;-61
2021/07/05 10:32:35;;;;;;;9.18;6.68;;;;;;;28.38;40.03;98643.41;5154310;27;20484;-61
2021/07/05 10:35:02;;;;;;;8.50;6.30;;;;;;;28.29;39.76;98650.47;5154604;27;20039;-61
2021/07/05 10:37:32;;;;;;;10.00;6.50;;;;;;;28.24;40.16;98644.66;5154330;27;20042;-61
2021/07/05 10:39:59;;;;;;;9.23;6.45;;;;;;;28.14;40.23;98649.97;5154263;27;20570;-60
2021/07/05 10:42:38;;;;;;;9.77;6.25;;;;;;;28.07;40.29;98651.50;5154019;27;20130;-61
2021/07/05 10:45:09;;;;;;;9.35;6.95;;;;;;;27.98;40.32;98653.16;5154228;27;20492;-61
2021/07/05 10:47:47;;;;;;;8.68;6.40;;;;;;;27.92;40.39;98653.69;5154015;27;20046;-61
2021/07/05 10:50:52;;;;;;;8.85;6.40;;;;;;;27.84;40.43;98651.66;5154444;27;20081;-60
2021/07/05 10:53:20;;;;;;;10.68;6.00;;;;;;;27.78;40.85;98643.28;5154173;27;20516;-60
2021/07/05 10:55:48;;;;;;;10.52;6.20;;;;;;;27.69;40.60;98644.97;5154403;27;20385;-61
2021/07/05 10:58:18;;;;;;;9.27;6.55;;;;;;;27.64;40.95;98645.34;5153975;27;20052;-60
2021/07/05 11:00:46;;;;;;;10.60;6.13;;;;;;;27.59;40.43;98642.22;5154371;27;20042;-61
2021/07/05 11:03:28;;;;;;;9.05;6.20;;;;;;;27.54;40.79;98644.44;5154368;27;20099;-60
2021/07/05 11:05:54;;;;;;;9.65;6.45;;;;;;;27.48;40.89;98651.16;5153872;27;20038;-60
2021/07/05 11:08:35;;;;;;;8.50;5.95;;;;;;;27.44;41.16;98649.72;5153815;27;20050;-61
2021/07/05 11:11:31;;;;;;;9.60;6.43;;;;;;;27.40;41.10;98655.47;5154248;27;20039;-61
2021/07/05 11:14:20;;;;;;;8.55;6.15;;;;;;;27.35;41.32;98660.38;5153901;27;20437;-61
2021/07/05 11:17:09;;;;;;;9.27;6.05;;;;;;;27.32;40.99;98653.47;5153888;27;20125;-62
2021/07/05 11:19:40;;;;;;;9.85;6.18;;;;;;;27.27;41.49;98653.00;5153837;27;20095;-60
2021/07/05 11:22:18;;;;;;;9.57;6.63;;;;;;;27.22;41.43;98649.81;5154210;27;20106;-60
2021/07/05 11:24:49;;;;;;;9.38;6.47;;;;;;;27.17;41.37;98652.88;5153913;27;20039;-60
2021/07/05 11:27:37;;;;;;;10.18;6.38;;;;;;;27.16;41.32;98656.56;5154199;27;20589;-60
2021/07/05 11:30:29;;;;;;;9.23;6.63;;;;;;;27.13;41.27;98656.81;5153737;27;20090;-61
2021/07/05 11:32:59;;;;;;;8.80;6.47;;;;;;;27.10;41.71;98651.69;5153983;27;20142;-61
2021/07/05 11:35:35;;;;;;;10.00;6.40;;;;;;;27.07;41.25;98657.31;5154131;27;20039;-60
2021/07/05 11:38:02;;;;;;;12.93;7.88;;;;;;;27.02;40.92;98655.00;5154096;27;20058;-61
2021/07/05 11:40:46;;;;;;;9.90;6.97;;;;;;;27.04;41.30;98642.34;5154401;27;20043;-60
2021/07/05 11:43:13;;;;;;;11.77;7.68;;;;;;;27.02;41.59;98647.00;5154019;27;20055;-60
2021/07/05 11:45:45;;;;;;;10.63;7.00;;;;;;;27.06;41.36;98647.59;5153982;27;20431;-60
2021/07/05 11:48:52;;;;;;;10.13;7.22;;;;;;;27.08;41.25;98653.66;5153386;27;20055;-60
2021/07/05 11:51:19;;;;;;;11.10;7.28;;;;;;;27.07;41.52;98642.13;5153497;27;20049;-61
2021/07/05 11:53:49;;;;;;;12.80;7.63;;;;;;;27.12;41.51;98639.03;5154698;27;20047;-61
2021/07/05 11:56:29;;;;;;;9.95;7.35;;;;;;;27.14;41.56;98642.44;5143509;27;20047;-60
2021/07/05 11:58:56;;;;;;;11.27;7.80;;;;;;;27.16;41.32;98636.97;5137002;27;20107;-61
2021/07/05 12:01:24;;;;;;;11.32;6.65;;;;;;;27.22;41.40;98642.66;5136553;27;20043;-61
2021/07/05 12:03:53;;;;;;;12.40;7.72;;;;;;;27.28;41.23;98644.00;5136778;27;20051;-60
2021/07/05 12:06:20;;;;;;;11.13;7.72;;;;;;;27.30;41.26;98636.69;5135734;27;20040;-60
2021/07/05 12:08:54;;;;;;;11.95;7.70;;;;;;;27.33;41.33;98625.72;5135950;27;20095;-61
2021/07/05 12:11:27;;;;;;;;;;;;;;;27.33;41.03;98625.72;5137036;27;20096;-61
2021/07/05 12:14:06;;;;;;;10.68;7.72;;;;;;;27.32;41.09;98628.50;5136737;27;19964;-61
2021/07/05 12:16:32;;;;;;;11.23;8.23;;;;;;;27.30;41.43;98616.13;5136627;27;20051;-61
2021/07/05 12:19:01;;;;;;;11.18;8.27;;;;;;;27.34;41.40;98613.22;5136563;27;20461;-61
2021/07/05 12:21:32;;;;;;;12.32;8.70;;;;;;;27.37;41.54;98618.28;5136462;27;20105;-60
2021/07/05 12:24:08;;;;;;;13.15;8.68;;;;;;;27.41;40.98;98617.03;5136213;27;20043;-61
2021/07/05 12:26:41;;;;;;;13.93;8.43;;;;;;;27.44;41.09;98611.44;5136455;27;20047;-61
2021/07/05 12:29:10;;;;;;;12.00;8.50;;;;;;;27.42;41.32;98610.72;5136346;27;20047;-61
2021/07/05 12:31:37;;;;;;;13.32;8.52;;;;;;;27.39;41.64;98606.47;5136262;27;20039;-61
2021/07/05 12:34:05;;;;;;;13.10;8.20;;;;;;;27.40;41.34;98610.00;5136308;27;20047;-61
2021/07/05 12:36:32;;;;;;;11.80;8.38;;;;;;;27.45;41.50;98613.13;5136016;27;20040;-61
2021/07/05 12:39:00;;;;;;;10.98;7.90;;;;;;;27.46;40.97;98617.50;5136144;27;20450;-61
2021/07/05 12:41:30;;;;;;;12.20;8.27;;;;;;;27.46;40.98;98610.31;5136135;27;20045;-61
2021/07/05 12:44:09;;;;;;;11.98;8.23;;;;;;;27.45;41.53;98618.47;5135772;27;20082;-61
2021/07/05 12:46:36;;;;;;;10.77;7.63;;;;;;;27.47;41.37;98619.19;5136088;27;20104;-61
2021/07/05 12:49:02;;;;;;;11.25;8.27;;;;;;;27.48;41.34;98612.88;5135427;27;20088;-61
2021/07/05 12:51:31;;;;;;;12.40;8.35;;;;;;;27.43;41.39;98613.28;5135957;27;20104;-61
2021/07/05 12:53:57;;;;;;;11.95;8.30;;;;;;;27.42;41.21;98608.88;5135880;27;20043;-61
2021/07/05 12:56:29;;;;;;;10.45;7.00;;;;;;;27.44;41.36;98614.13;5135652;27;20480;-61
2021/07/05 12:58:56;;;;;;;11.32;7.32;;;;;;;27.44;41.31;98622.13;5135707;27;20491;-61
2021/07/05 13:01:34;;;;;;;10.25;7.68;;;;;;;27.44;41.82;98614.13;5135805;27;20071;-61
2021/07/05 13:04:02;;;;;;;9.77;7.05;;;;;;;27.42;41.81;98608.88;5134541;27;20043;-60
2021/07/05 13:06:31;;;;;;;10.57;7.53;;;;;;;27.40;41.63;98610.00;5135007;27;20480;-60
2021/07/05 13:08:59;;;;;;;10.70;7.03;;;;;;;27.38;41.13;98606.63;5135725;27;20047;-61
2021/07/05 13:11:33;;;;;;;10.00;7.45;;;;;;;27.37;41.13;98618.28;5135259;27;20541;-61
2021/07/05 13:14:03;;;;;;;10.70;7.47;;;;;;;27.35;40.30;98621.09;5135628;27;20043;-61
2021/07/05 13:16:30;;;;;;;10.05;7.03;;;;;;;27.36;40.93;98613.94;5135166;27;20051;-60
2021/07/05 13:18:57;;;;;;;10.55;7.13;;;;;;;27.34;40.79;98622.06;5135143;27;20047;-61
2021/07/05 13:21:33;;;;;;;9.95;7.13;;;;;;;27.36;40.95;98621.94;5135424;27;20043;-61
2021/07/05 13:24:00;;;;;;;9.88;7.18;;;;;;;27.38;40.88;98625.34;5135407;27;20046;-61
2021/07/05 13:26:36;;;;;;;9.75;6.70;;;;;;;27.39;40.87;98624.34;5135240;27;20516;-61
2021/07/05 13:29:03;;;;;;;9.70;6.80;;;;;;;27.36;40.70;98621.94;5134890;27;20446;-61
2021/07/05 13:31:34;;;;;;;9.65;6.50;;;;;;;27.34;41.01;98616.72;5135125;27;20051;-60
2021/07/05 13:34:01;;;;;;;10.10;6.93;;;;;;;27.33;41.03;98619.53;5135154;27;20039;-61
2021/07/05 13:36:27;;;;;;;10.00;6.85;;;;;;;27.30;40.91;98621.50;5135074;27;20111;-61
2021/07/05 13:38:56;;;;;;;10.57;6.80;;;;;;;27.29;41.14;98624.28;5134681;27;20071;-61
2021/07/05 13:41:23;;;;;;;9.35;6.68;;;;;;;27.26;41.49;98624.56;5134513;27;20615;-61
2021/07/05 13:43:50;;;;;;;9.13;6.28;;;;;;;27.23;41.11;98636.31;5134574;27;20091;-61
2021/07/05 13:46:17;;;;;;;10.73;7.10;;;;;;;27.22;40.07;98639.13;5134883;27;20053;-61
2021/07/05 13:48:43;;;;;;;10.52;7.05;;;;;;;27.20;40.91;98636.59;5134663;27;20039;-61
2021/07/05 13:51:11;;;;;;;9.63;6.38;;;;;;;27.19;40.63;98634.88;5134685;27;20054;-61
2021/07/05 13:53:39;;;;;;;9.73;6.55;;;;;;;27.17;41.24;98628.81;5134744;27;20104;-61
2021/07/05 13:56:10;;;;;;;8.93;6.28;;;;;;;27.16;41.08;98639.63;5134313;27;20138;-61
2021/07/05 13:58:38;;;;;;;9.30;6.50;;;;;;;27.11;41.14;98632.00;5134394;27;20553;-61
2021/07/05 14:01:06;;;;;;;9.57;6.68;;;;;;;27.11;41.17;98632.00;5134281;27;20488;-61
2021/07/05 14:03:32;;;;;;;11.35;6.45;;;;;;;27.07;41.14;98631.41;5134424;27;20095;-61
2021/07/05 14:06:00;;;;;;;10.02;6.45;;;;;;;27.05;41.14;98635.22;5134513;27;20111;-61
2021/07/05 14:08:28;;;;;;;8.95;6.40;;;;;;;27.03;41.03;98640.69;5133867;27;20096;-61
2021/07/05 14:10:56;;;;;;;9.70;5.90;;;;;;;27.00;40.42;98634.72;5134007;27;20100;-61
2021/07/05 14:13:25;;;;;;;10.13;6.80;;;;;;;26.97;40.33;98633.19;5134334;27;20156;-61
2021/07/05 14:15:52;;;;;;;10.80;5.90;;;;;;;26.96;40.28;98634.13;5133798;27;20386;-61
2021/07/05 14:18:19;;;;;;;8.52;6.07;;;;;;;26.93;40.32;98637.09;5133739;27;20047;-62
2021/07/05 14:20:46;;;;;;;9.40;6.40;;;;;;;26.92;41.05;98638.06;5133767;27;20492;-61
2021/07/05 14:23:13;;;;;;;9.65;6.28;;;;;;;26.91;40.97;98633.69;5133921;27;20043;-61
2021/07/05 14:25:41;;;;;;;9.05;6.38;;;;;;;26.89;41.19;98633.81;5133829;27;20047;-61
2021/07/05 14:28:07;;;;;;;8.52;6.03;;;;;;;26.86;40.81;98634.06;5133833;27;20047;-61
2021/07/05 14:30:35;;;;;;;8.98;6.22;;;;;;;26.83;40.21;98628.97;5134022;27;20047;-61
2021/07/05 14:33:02;;;;;;;8.63;5.95;;;;;;;26.82;40.62;98627.28;5134221;27;20092;-61
2021/07/05 14:35:29;;;;;;;8.80;5.93;;;;;;;26.80;40.35;98623.88;5134138;27;20381;-61
2021/07/05 14:37:56;;;;;;;9.13;6.00;;;;;;;26.80;40.41;98631.06;5134007;27;20121;-61
2021/07/05 14:40:23;;;;;;;9.38;6.28;;;;;;;26.77;40.18;98629.47;5133989;27;20051;-61
2021/07/05 14:42:49;;;;;;;9.95;6.28;;;;;;;26.76;40.21;98630.47;5133508;27;20484;-61
2021/07/05 14:45:16;;;;;;;9.27;6.57;;;;;;;26.76;40.25;98627.78;5133861;27;20051;-60
2021/07/05 14:47:45;;;;;;;9.98;6.32;;;;;;;26.76;40.86;98624.28;5133442;27;20089;-61
2021/07/05 14:50:13;;;;;;;10.07;6.38;;;;;;;26.75;40.50;98623.41;5133414;27;20043;-61
2021/07/05 14:52:41;;;;;;;8.60;6.05;;;;;;;26.76;40.88;98619.78;5133735;27;20043;-61
2021/07/05 14:55:09;;;;;;;8.50;5.85;;;;;;;26.77;40.96;98613.44;5133690;27;20047;-61
2021/07/05 14:57:35;;;;;;;9.70;5.63;;;;;;;26.76;41.03;98617.09;5133742;27;20099;-61
2021/07/05 15:00:02;;;;;;;9.15;5.85;;;;;;;26.77;40.96;98618.78;5133277;27;20100;-61
2021/07/05 15:02:29;;;;;;;9.20;6.57;;;;;;;26.74;41.06;98619.06;5133679;27;20070;-61
2021/07/05 15:04:57;;;;;;;8.90;5.70;;;;;;;26.76;41.13;98619.78;5133191;27;20058;-60
2021/07/05 15:07:24;;;;;;;9.48;6.05;;;;;;;26.74;41.07;98616.38;5133121;27;20047;-61
2021/07/05 15:09:52;;;;;;;10.68;6.20;;;;;;;26.75;41.45;98620.72;5133478;28;20442;-61
2021/07/05 15:12:19;;;;;;;8.10;5.75;;;;;;;26.77;41.09;98613.44;5133072;28;20566;-61
2021/07/05 15:14:45;;;;;;;8.13;5.95;;;;;;;26.79;41.13;98611.47;5133186;28;20545;-61
2021/07/05 15:17:12;;;;;;;8.32;5.85;;;;;;;26.79;41.35;98611.47;5133247;28;20472;-61
2021/07/05 15:19:39;;;;;;;8.73;5.63;;;;;;;26.80;41.40;98607.84;5133460;28;20100;-60
2021/07/05 15:22:08;;;;;;;8.98;6.07;;;;;;;26.82;41.17;98607.72;5133313;28;20047;-61
2021/07/05 15:24:35;;;;;;;8.32;5.90;;;;;;;26.84;41.14;98609.28;5133364;28;20050;-61
2021/07/05 15:27:01;;;;;;;9.43;5.82;;;;;;;26.88;40.89;98599.19;5133114;28;20048;-61
2021/07/05 15:29:28;;;;;;;11.13;5.93;;;;;;;26.95;40.51;98607.53;5135572;27;20455;-61
2021/07/05 15:31:55;;;;;;;8.05;5.75;;;;;;;27.00;40.90;98599.97;5137106;27;20485;-61
2021/07/05 15:34:22;;;;;;;8.95;5.97;;;;;;;27.03;41.13;98603.25;5137468;27;20047;-61
2021/07/05 15:36:48;;;;;;;9.00;6.38;;;;;;;27.06;40.31;98613.69;5137019;27;20047;-61
2021/07/05 15:39:17;;;;;;;8.57;5.55;;;;;;;27.16;40.82;98604.88;5137379;27;20043;-61
2021/07/05 15:41:43;;;;;;;10.95;6.03;;;;;;;27.25;40.70;98599.63;5137279;27;20081;-61
2021/07/05 15:44:10;;;;;;;10.93;6.60;;;;;;;27.27;40.55;98602.16;5137002;27;20557;-61
2021/07/05 15:46:39;;;;;;;10.02;6.57;;;;;;;27.29;40.44;98600.22;5136986;27;20103;-60
2021/07/05 15:49:05;;;;;;;8.32;6.05;;;;;;;27.26;40.46;98595.97;5136729;27;20043;-60
2021/07/05 15:51:32;;;;;;;10.63;6.50;;;;;;;27.22;40.42;98602.53;5137208;27;20039;-60
2021/07/05 15:53:59;;;;;;;8.75;5.88;;;;;;;27.21;40.70;98600.84;5136786;27;20549;-60
2021/07/05 15:56:27;;;;;;;8.32;5.63;;;;;;;27.18;40.83;98595.75;5137157;27;20104;-60
2021/07/05 15:58:53;;;;;;;9.95;6.70;;;;;;;27.12;41.11;98598.94;5135937;27;20446;-60
2021/07/05 16:01:20;;;;;;;8.85;6.10;;;;;;;27.08;40.92;98600.16;5137108;27;20043;-60
2021/07/05 16:03:47;;;;;;;8.48;5.68;;;;;;;27.05;41.48;98606.63;5136647;27;20046;-60
2021/07/05 16:06:14;;;;;;;10.02;6.15;;;;;;;27.02;41.42;98606.03;5136935;27;20047;-60
2021/07/05 16:08:40;;;;;;;9.57;5.78;;;;;;;26.99;41.40;98617.84;5136464;27;20077;-60
2021/07/05 16:11:07;;;;;;;9.63;5.88;;;;;;;26.96;41.39;98612.75;5135198;27;20115;-61
2021/07/05 16:13:35;;;;;;;9.60;5.78;;;;;;;26.94;41.59;98620.06;5136669;27;20039;-61
2021/07/05 16:16:02;;;;;;;10.63;6.47;;;;;;;26.95;41.90;98620.91;5136643;27;20099;-61
2021/07/05 16:18:28;;;;;;;8.15;5.70;;;;;;;26.96;41.80;98630.63;5136268;27;20043;-62
2021/07/05 16:20:56;;;;;;;9.65;5.82;;;;;;;26.95;41.67;98631.59;5136619;27;20062;-60
2021/07/05 16:23:22;;;;;;;11.18;6.65;;;;;;;26.92;41.86;98633.53;5136556;27;20118;-60
2021/07/05 16:25:49;;;;;;;10.77;6.32;;;;;;;26.90;41.99;98634.66;5136492;27;20039;-60
2021/07/05 16:28:16;;;;;;;10.27;6.43;;;;;;;26.90;41.86;98637.31;5136109;27;20451;-61
2021/07/05 16:30:44;;;;;;;10.98;6.97;;;;;;;26.88;41.94;98634.78;5136202;27;20043;-62
2021/07/05 16:33:11;;;;;;;10.05;6.78;;;;;;;26.87;42.04;98635.78;5136069;27;20103;-61
2021/07/05 16:35:38;;;;;;;8.88;6.40;;;;;;;26.87;42.24;98635.78;5135936;27;20170;-61
2021/07/05 16:38:05;;;;;;;8.90;6.18;;;;;;;26.86;42.19;98638.56;5136002;27;20104;-61
2021/07/05 16:40:32;;;;;;;8.98;6.25;;;;;;;26.87;42.19;98642.91;5135697;27;20378;-61
2021/07/05 16:42:58;;;;;;;9.13;6.32;;;;;;;26.87;42.58;98634.91;5135896;27;20441;-61
2021/07/05 16:45:25;;;;;;;8.50;5.85;;;;;;;26.85;42.33;98643.06;5136155;27;20104;-61
2021/07/05 16:47:54;;;;;;;8.48;6.20;;;;;;;26.84;42.65;98648.53;5136050;27;20051;-61
2021/07/05 16:50:22;;;;;;;11.80;6.70;;;;;;;26.81;42.76;98657.66;5135602;27;20047;-61
2021/07/05 16:52:55;;;;;;;9.13;6.43;;;;;;;26.81;42.77;98662.13;5135969;27;20143;-61
2021/07/05 16:55:22;;;;;;;10.45;6.38;;;;;;;26.79;42.99;98659.59;5136019;27;20100;-60
2021/07/05 16:57:49;;;;;;;9.05;6.70;;;;;;;26.76;42.83;98665.19;5135913;27;20453;-61
2021/07/05 17:00:17;;;;;;;8.85;6.45;;;;;;;26.75;42.92;98665.31;5135799;27;20442;-61
2021/07/05 17:02:48;;;;;;;10.02;5.95;;;;;;;26.73;43.00;98676.13;5135843;27;20461;-60
2021/07/05 17:05:18;;;;;;;10.82;6.40;;;;;;;26.71;42.92;98675.41;5135680;27;20043;-61
2021/07/05 17:07:44;;;;;;;8.27;5.72;;;;;;;26.69;42.98;98682.69;5135456;27;20084;-61
2021/07/05 17:10:11;;;;;;;8.82;6.38;;;;;;;26.69;43.07;98680.03;5135485;27;20039;-61
2021/07/05 17:12:39;;;;;;;9.30;6.45;;;;;;;26.66;43.07;98688.31;5135294;27;20100;-61
2021/07/05 17:15:07;;;;;;;9.15;5.97;;;;;;;26.66;43.13;98682.97;5135240;27;20095;-60
2021/07/05 17:17:34;;;;;;;9.68;6.45;;;;;;;26.65;43.30;98690.13;5135190;27;20047;-62
2021/07/05 17:20:00;;;;;;;8.60;6.30;;;;;;;26.63;43.29;98683.22;5135501;27;20104;-61
2021/07/05 17:22:28;;;;;;;10.18;6.53;;;;;;;26.63;43.27;98691.22;5135191;27;20100;-61
2021/07/05 17:24:55;;;;;;;9.05;6.47;;;;;;;26.62;43.36;98690.38;5135181;27;20119;-61
2021/07/05 17:27:22;;;;;;;10.60;6.47;;;;;;;26.58;43.53;98691.56;5135385;27;20043;-61
2021/07/05 17:29:48;;;;;;;8.70;6.38;;;;;;;26.58;43.43;98688.03;5135180;27;20043;-61
2021/07/05 17:32:15;;;;;;;9.60;6.45;;;;;;;26.58;43.55;98690.72;5134882;27;20473;-61
2021/07/05 17:34:43;;;;;;;8.63;6.35;;;;;;;26.58;43.47;98693.38;5135171;27;20047;-61
2021/07/05 17:37:10;;;;;;;8.57;6.38;;;;;;;26.56;43.60;98695.31;5134897;27;20051;-61
2021/07/05 17:39:38;;;;;;;10.30;6.40;;;;;;;26.56;43.66;98696.19;5135161;27;20047;-60
2021/07/05 17:42:06;;;;;;;9.02;6.43;;;;;;;26.56;43.49;98695.31;5134952;27;20047;-61
2021/07/05 17:44:32;;;;;;;12.23;6.50;;;;;;;26.53;43.56;98691.09;5134968;27;20047;-61
2021/07/05 17:46:59;;;;;;;10.63;6.30;;;;;;;26.52;43.68;98689.38;5134815;27;20107;-61
2021/07/05 17:49:26;;;;;;;10.35;6.50;;;;;;;26.50;43.78;98694.88;5134557;27;20429;-61
2021/07/05 17:51:52;;;;;;;8.82;6.18;;;;;;;26.49;44.07;98698.50;5133553;27;20047;-60
2021/07/05 17:54:19;;;;;;;9.02;6.50;;;;;;;26.48;43.96;98699.50;5134356;27;20500;-60
2021/07/05 17:56:49;;;;;;;8.98;6.00;;;;;;;26.48;44.00;98702.16;5134696;27;20043;-60
2021/07/05 17:59:16;;;;;;;9.25;6.50;;;;;;;26.47;44.34;98708.47;5134405;27;20493;-60
2021/07/05 18:01:43;;;;;;;8.90;6.50;;;;;;;26.46;44.45;98701.44;5134629;27;20103;-60
2021/07/05 18:04:09;;;;;;;9.95;6.75;;;;;;;26.46;44.50;98711.25;5134193;27;20051;-61
2021/07/05 18:06:36;;;;;;;9.55;6.40;;;;;;;26.45;44.27;98710.41;5134277;27;20039;-60
2021/07/05 18:09:03;;;;;;;8.90;6.22;;;;;;;26.44;44.63;98718.53;5133019;27;20039;-61
2021/07/05 18:11:30;;;;;;;9.52;6.70;;;;;;;26.42;44.64;98715.97;5133888;27;20046;-61
2021/07/05 18:13:58;;;;;;;8.85;6.60;;;;;;;26.42;44.59;98715.97;5134371;27;20051;-60
2021/07/05 18:16:25;;;;;;;9.63;6.60;;;;;;;26.40;44.86;98717.09;5134258;27;20044;-61
2021/07/05 18:18:52;;;;;;;10.32;7.38;;;;;;;26.37;45.79;98712.84;5134236;27;20047;-61
2021/07/05 18:21:19;;;;;;;10.40;7.45;;;;;;;26.36;44.82;98716.47;5134266;27;20043;-61
2021/07/05 18:23:46;;;;;;;12.27;8.18;;;;;;;26.33;46.12;98720.25;5134196;27;20409;-61
2021/07/05 18:26:13;;;;;;;10.70;7.55;;;;;;;26.33;45.67;98724.75;5134179;27;20043;-61
2021/07/05 18:28:41;;;;;;;10.73;7.82;;;;;;;26.29;45.80;98721.47;5134118;27;20043;-61
2021/07/05 19:21:58;;;;;;;22.60;9.52;;;;;;;25.01;50.00;98793.38;5051400;27;20674;-57
2021/07/05 21:40:54;;;;;;;11.15;7.22;;;;;;;24.34;52.02;98879.75;5141415;27;20136;-59
